Kezdőlap
METAR-TAF:

METAR-TAF

Repülőterek :

Iowa City Municipal Airport

Iowa City, Iowa, Amerikai Egyesült Államok

földrajzi szélesség: 41-37-58N, földrajzi hosszúság: 091-32-35W, magasság: 203 m

Jelenlegi meteorológiai megfigyelések

A jelentés 33 perccel ezelõtt készült, 10:52 UTC
Nyugati szél 6 kt
Hőmérséklet -3°C
Páratartalom 80%
Légköri nyomás 1016 hPa
Látótávolság: 9.7 km
Borult 600 lábon
Párásság

METAR: KIOW 131052Z AUTO 27006KT 6SM BR OVC006 M03/M06 A2999 RMK AO2 SLP163 T10331056

Idő: 05:25 (11:25 UTC)


TAF: hiányzik

Meteorológiai megfigyelések és előrejelzések több, mint 4000 repülőtéren (METAR és TAF jelentéseket).

A térképen piros és sárga pontok jelzik az elérhető meteorológiai állomásokat.

Mozgassa az egeret a pont fölött, hogy megjelenjen az állomás neve.

Azután kattintson az időjárási megfigyelések és előrejelzések megtekintéséhez.

A térkép megváltoztatása: kattintson a fekete keresztel jelölt zöld gombra ráközelítéshez, a vonallal jelölt zöld gombra távolításhoz, vagy a zöld nyilakra a szomszédos térképek eléréséhez.


METAR-TAF: